sensor_id;sensor_type;location;lat;lon;timestamp;pressure;altitude;pressure_sealevel;temperature;humidity
60852;BME280;48553;50.766;2.900;2024-02-28T00:01:05;101345.25;;;6.24;100.00
60852;BME280;48553;50.766;2.900;2024-02-28T00:04:05;101336.56;;;6.22;100.00
60852;BME280;48553;50.766;2.900;2024-02-28T00:07:06;101337.38;;;6.22;100.00
60852;BME280;48553;50.766;2.900;2024-02-28T00:10:07;101333.31;;;6.20;100.00
60852;BME280;48553;50.766;2.900;2024-02-28T00:13:08;101340.97;;;6.18;100.00
60852;BME280;48553;50.766;2.900;2024-02-28T00:16:08;101343.69;;;6.18;100.00
60852;BME280;48553;50.766;2.900;2024-02-28T00:19:09;101334.19;;;6.15;100.00
60852;BME280;48553;50.766;2.900;2024-02-28T00:22:11;101337.75;;;6.16;100.00
60852;BME280;48553;50.766;2.900;2024-02-28T00:25:12;101335.59;;;6.13;100.00
60852;BME280;48553;50.766;2.900;2024-02-28T00:28:13;101337.25;;;6.09;100.00
60852;BME280;48553;50.766;2.900;2024-02-28T00:31:14;101336.53;;;6.03;100.00
60852;BME280;48553;50.766;2.900;2024-02-28T00:34:15;101341.69;;;6.04;100.00
60852;BME280;48553;50.766;2.900;2024-02-28T00:37:15;101334.41;;;6.00;100.00
60852;BME280;48553;50.766;2.900;2024-02-28T00:40:16;101322.47;;;5.96;100.00
60852;BME280;48553;50.766;2.900;2024-02-28T00:43:16;101325.47;;;5.94;100.00
60852;BME280;48553;50.766;2.900;2024-02-28T00:46:16;101332.00;;;5.93;100.00
60852;BME280;48553;50.766;2.900;2024-02-28T00:49:17;101324.63;;;5.94;100.00
60852;BME280;48553;50.766;2.900;2024-02-28T00:52:17;101320.88;;;5.90;100.00
60852;BME280;48553;50.766;2.900;2024-02-28T00:55:18;101325.78;;;5.88;100.00
60852;BME280;48553;50.766;2.900;2024-02-28T00:58:18;101333.41;;;5.85;100.00
60852;BME280;48553;50.766;2.900;2024-02-28T01:01:19;101331.81;;;5.84;100.00
60852;BME280;48553;50.766;2.900;2024-02-28T01:04:19;101344.63;;;5.84;100.00
60852;BME280;48553;50.766;2.900;2024-02-28T01:07:20;101340.56;;;5.81;100.00
60852;BME280;48553;50.766;2.900;2024-02-28T01:10:20;101337.31;;;5.79;100.00
60852;BME280;48553;50.766;2.900;2024-02-28T01:13:21;101334.59;;;5.79;100.00
60852;BME280;48553;50.766;2.900;2024-02-28T01:16:22;101329.44;;;5.78;100.00
60852;BME280;48553;50.766;2.900;2024-02-28T01:19:22;101331.34;;;5.77;100.00
60852;BME280;48553;50.766;2.900;2024-02-28T01:22:22;101328.09;;;5.75;100.00
60852;BME280;48553;50.766;2.900;2024-02-28T01:25:23;101330.81;;;5.75;100.00
60852;BME280;48553;50.766;2.900;2024-02-28T01:28:24;101336.56;;;5.74;100.00
60852;BME280;48553;50.766;2.900;2024-02-28T01:31:24;101329.50;;;5.73;100.00
60852;BME280;48553;50.766;2.900;2024-02-28T01:34:25;101339.25;;;5.74;100.00
60852;BME280;48553;50.766;2.900;2024-02-28T01:37:25;101338.47;;;5.73;100.00
60852;BME280;48553;50.766;2.900;2024-02-28T01:40:25;101327.59;;;5.73;100.00
60852;BME280;48553;50.766;2.900;2024-02-28T01:43:26;101327.59;;;5.73;100.00
60852;BME280;48553;50.766;2.900;2024-02-28T01:46:27;101328.38;;;5.74;100.00
60852;BME280;48553;50.766;2.900;2024-02-28T01:49:28;101318.63;;;5.73;100.00
60852;BME280;48553;50.766;2.900;2024-02-28T01:52:28;101316.72;;;5.73;100.00
60852;BME280;48553;50.766;2.900;2024-02-28T01:55:29;101326.78;;;5.73;100.00
60852;BME280;48553;50.766;2.900;2024-02-28T01:58:30;101316.19;;;5.71;100.00
60852;BME280;48553;50.766;2.900;2024-02-28T02:01:30;101309.94;;;5.71;100.00
60852;BME280;48553;50.766;2.900;2024-02-28T02:04:31;101317.28;;;5.70;100.00
60852;BME280;48553;50.766;2.900;2024-02-28T02:07:31;101327.06;;;5.71;100.00
60852;BME280;48553;50.766;2.900;2024-02-28T02:10:32;101324.34;;;5.71;100.00
60852;BME280;48553;50.766;2.900;2024-02-28T02:13:33;101334.41;;;5.71;100.00
60852;BME280;48553;50.766;2.900;2024-02-28T02:16:33;101331.97;;;5.69;100.00
60852;BME280;48553;50.766;2.900;2024-02-28T02:19:33;101325.44;;;5.70;100.00
60852;BME280;48553;50.766;2.900;2024-02-28T02:22:36;101321.09;;;5.69;100.00
60852;BME280;48553;50.766;2.900;2024-02-28T02:25:45;101328.97;;;5.71;100.00
60852;BME280;48553;50.766;2.900;2024-02-28T02:28:46;101323.53;;;5.71;100.00
60852;BME280;48553;50.766;2.900;2024-02-28T02:31:46;101330.91;;;5.70;100.00
60852;BME280;48553;50.766;2.900;2024-02-28T02:34:47;101326.78;;;5.73;100.00
60852;BME280;48553;50.766;2.900;2024-02-28T02:37:47;101326.25;;;5.71;100.00
60852;BME280;48553;50.766;2.900;2024-02-28T02:40:52;101327.88;;;5.72;100.00
60852;BME280;48553;50.766;2.900;2024-02-28T02:43:52;101328.66;;;5.72;100.00
60852;BME280;48553;50.766;2.900;2024-02-28T02:46:53;101334.09;;;5.72;100.00
60852;BME280;48553;50.766;2.900;2024-02-28T02:49:53;101335.75;;;5.73;100.00
60852;BME280;48553;50.766;2.900;2024-02-28T02:52:53;101334.41;;;5.71;100.00
60852;BME280;48553;50.766;2.900;2024-02-28T02:55:54;101332.22;;;5.73;100.00
60852;BME280;48553;50.766;2.900;2024-02-28T02:58:54;101342.25;;;5.72;100.00
60852;BME280;48553;50.766;2.900;2024-02-28T03:01:55;101337.13;;;5.71;100.00
60852;BME280;48553;50.766;2.900;2024-02-28T03:04:55;101327.88;;;5.72;100.00
60852;BME280;48553;50.766;2.900;2024-02-28T03:07:55;101324.34;;;5.71;100.00
60852;BME280;48553;50.766;2.900;2024-02-28T03:10:56;101333.03;;;5.73;100.00
60852;BME280;48553;50.766;2.900;2024-02-28T03:13:56;101325.94;;;5.72;100.00
60852;BME280;48553;50.766;2.900;2024-02-28T03:16:57;101316.72;;;5.73;100.00
60852;BME280;48553;50.766;2.900;2024-02-28T03:19:57;101316.72;;;5.73;100.00
60852;BME280;48553;50.766;2.900;2024-02-28T03:22:58;101318.31;;;5.74;100.00
60852;BME280;48553;50.766;2.900;2024-02-28T03:25:58;101314.50;;;5.75;100.00
60852;BME280;48553;50.766;2.900;2024-02-28T03:28:59;101308.28;;;5.75;100.00
60852;BME280;48553;50.766;2.900;2024-02-28T03:32:00;101315.31;;;5.76;100.00
60852;BME280;48553;50.766;2.900;2024-02-28T03:35:00;101299.28;;;5.74;100.00
60852;BME280;48553;50.766;2.900;2024-02-28T03:38:00;101296.81;;;5.78;100.00
60852;BME280;48553;50.766;2.900;2024-02-28T03:41:01;101297.91;;;5.77;100.00
60852;BME280;48553;50.766;2.900;2024-02-28T03:44:02;101303.63;;;5.75;100.00
60852;BME280;48553;50.766;2.900;2024-02-28T03:47:03;101310.69;;;5.76;100.00
60852;BME280;48553;50.766;2.900;2024-02-28T03:50:04;101304.16;;;5.77;100.00
60852;BME280;48553;50.766;2.900;2024-02-28T03:53:04;101319.94;;;5.75;100.00
60852;BME280;48553;50.766;2.900;2024-02-28T03:56:05;101316.94;;;5.77;100.00
60852;BME280;48553;50.766;2.900;2024-02-28T03:59:06;101318.84;;;5.76;100.00
60852;BME280;48553;50.766;2.900;2024-02-28T04:02:06;101315.03;;;5.77;100.00
60852;BME280;48553;50.766;2.900;2024-02-28T04:05:07;101316.94;;;5.77;100.00
60852;BME280;48553;50.766;2.900;2024-02-28T04:08:07;101305.75;;;5.78;100.00
60852;BME280;48553;50.766;2.900;2024-02-28T04:11:08;101318.31;;;5.74;100.00
60852;BME280;48553;50.766;2.900;2024-02-28T04:14:08;101319.66;;;5.77;100.00
60852;BME280;48553;50.766;2.900;2024-02-28T04:17:09;101315.31;;;5.76;100.00
60852;BME280;48553;50.766;2.900;2024-02-28T04:20:10;101317.22;;;5.75;100.00
60852;BME280;48553;50.766;2.900;2024-02-28T04:23:11;101313.72;;;5.75;100.00
60852;BME280;48553;50.766;2.900;2024-02-28T04:26:11;101311.00;;;5.75;100.00
60852;BME280;48553;50.766;2.900;2024-02-28T04:29:12;101320.47;;;5.77;100.00
60852;BME280;48553;50.766;2.900;2024-02-28T04:32:14;101314.22;;;5.77;100.00
60852;BME280;48553;50.766;2.900;2024-02-28T04:35:14;101317.22;;;5.75;100.00
60852;BME280;48553;50.766;2.900;2024-02-28T04:38:18;101314.72;;;5.79;100.00
60852;BME280;48553;50.766;2.900;2024-02-28T04:41:19;101323.19;;;5.77;100.00
60852;BME280;48553;50.766;2.900;2024-02-28T04:44:19;101345.75;;;5.78;100.00
60852;BME280;48553;50.766;2.900;2024-02-28T04:47:19;101338.41;;;5.78;100.00
60852;BME280;48553;50.766;2.900;2024-02-28T04:50:20;101339.72;;;5.81;100.00
60852;BME280;48553;50.766;2.900;2024-02-28T04:53:20;101338.13;;;5.80;100.00
60852;BME280;48553;50.766;2.900;2024-02-28T04:56:21;101339.72;;;5.81;100.00
60852;BME280;48553;50.766;2.900;2024-02-28T04:59:21;101329.69;;;5.81;100.00
60852;BME280;48553;50.766;2.900;2024-02-28T05:02:22;101326.13;;;5.81;100.00
60852;BME280;48553;50.766;2.900;2024-02-28T05:05:22;101328.84;;;5.81;100.00
60852;BME280;48553;50.766;2.900;2024-02-28T05:08:23;101338.13;;;5.80;100.00
60852;BME280;48553;50.766;2.900;2024-02-28T05:11:24;101330.75;;;5.80;100.00
60852;BME280;48553;50.766;2.900;2024-02-28T05:14:24;101331.56;;;5.81;100.00
60852;BME280;48553;50.766;2.900;2024-02-28T05:17:25;101342.75;;;5.79;100.00
60852;BME280;48553;50.766;2.900;2024-02-28T05:20:25;101332.41;;;5.81;100.00
60852;BME280;48553;50.766;2.900;2024-02-28T05:23:26;101340.03;;;5.79;100.00
60852;BME280;48553;50.766;2.900;2024-02-28T05:26:26;101334.28;;;5.81;100.00
60852;BME280;48553;50.766;2.900;2024-02-28T05:29:27;101332.09;;;5.83;100.00
60852;BME280;48553;50.766;2.900;2024-02-28T05:32:27;101346.00;;;5.81;100.00
60852;BME280;48553;50.766;2.900;2024-02-28T05:35:28;101339.44;;;5.82;100.00
60852;BME280;48553;50.766;2.900;2024-02-28T05:38:28;101326.66;;;5.83;100.00
60852;BME280;48553;50.766;2.900;2024-02-28T05:41:28;101331.53;;;5.86;100.00
60852;BME280;48553;50.766;2.900;2024-02-28T05:44:29;101326.38;;;5.84;100.00
60852;BME280;48553;50.766;2.900;2024-02-28T05:47:30;101331.81;;;5.84;100.00
60852;BME280;48553;50.766;2.900;2024-02-28T05:50:31;101329.38;;;5.83;100.00
60852;BME280;48553;50.766;2.900;2024-02-28T05:53:33;101332.91;;;5.83;100.00
60852;BME280;48553;50.766;2.900;2024-02-28T05:56:36;101326.13;;;5.81;100.00
60852;BME280;48553;50.766;2.900;2024-02-28T05:59:36;101336.72;;;5.82;100.00
60852;BME280;48553;50.766;2.900;2024-02-28T06:02:37;101322.84;;;5.84;100.00
60852;BME280;48553;50.766;2.900;2024-02-28T06:05:38;101319.28;;;5.83;100.00
60852;BME280;48553;50.766;2.900;2024-02-28T06:08:39;101316.28;;;5.85;100.00
60852;BME280;48553;50.766;2.900;2024-02-28T06:11:40;101319.00;;;5.85;100.00
60852;BME280;48553;50.766;2.900;2024-02-28T06:14:40;101307.34;;;5.84;100.00
60852;BME280;48553;50.766;2.900;2024-02-28T06:17:41;101317.94;;;5.86;100.00
60852;BME280;48553;50.766;2.900;2024-02-28T06:20:41;101317.94;;;5.86;100.00
60852;BME280;48553;50.766;2.900;2024-02-28T06:23:42;101319.53;;;5.87;100.00
60852;BME280;48553;50.766;2.900;2024-02-28T06:26:43;101315.72;;;5.88;100.00
60852;BME280;48553;50.766;2.900;2024-02-28T06:29:43;101333.13;;;5.87;100.00
60852;BME280;48553;50.766;2.900;2024-02-28T06:32:44;101341.31;;;5.87;100.00
60852;BME280;48553;50.766;2.900;2024-02-28T06:35:44;101342.91;;;5.88;100.00
60852;BME280;48553;50.766;2.900;2024-02-28T06:38:44;101346.47;;;5.89;100.00
60852;BME280;48553;50.766;2.900;2024-02-28T06:41:45;101354.91;;;5.87;100.00
60852;BME280;48553;50.766;2.900;2024-02-28T06:44:45;101352.44;;;5.91;100.00
60852;BME280;48553;50.766;2.900;2024-02-28T06:47:46;101358.38;;;5.93;100.00
60852;BME280;48553;50.766;2.900;2024-02-28T06:50:47;101352.44;;;5.91;100.00
60852;BME280;48553;50.766;2.900;2024-02-28T06:53:47;101354.56;;;5.94;100.00
60852;BME280;48553;50.766;2.900;2024-02-28T06:56:48;101352.13;;;5.92;100.00
60852;BME280;48553;50.766;2.900;2024-02-28T06:59:48;101355.38;;;5.94;100.00
60852;BME280;48553;50.766;2.900;2024-02-28T07:02:49;101360.56;;;5.96;100.00
60852;BME280;48553;50.766;2.900;2024-02-28T07:05:50;101366.53;;;5.98;100.00
60852;BME280;48553;50.766;2.900;2024-02-28T07:08:50;101367.59;;;5.97;100.00
60852;BME280;48553;50.766;2.900;2024-02-28T07:11:51;101360.78;;;5.99;100.00
60852;BME280;48553;50.766;2.900;2024-02-28T07:14:51;101370.84;;;5.99;100.00
60852;BME280;48553;50.766;2.900;2024-02-28T07:17:52;101366.53;;;5.98;100.00
60852;BME280;48553;50.766;2.900;2024-02-28T07:20:52;101376.81;;;6.01;100.00
60852;BME280;48553;50.766;2.900;2024-02-28T07:23:53;101378.44;;;6.02;100.00
60852;BME280;48553;50.766;2.900;2024-02-28T07:26:54;101372.69;;;6.03;100.00
60852;BME280;48553;50.766;2.900;2024-02-28T07:29:54;101390.34;;;6.06;100.00
60852;BME280;48553;50.766;2.900;2024-02-28T07:32:55;101389.56;;;6.05;100.00
60852;BME280;48553;50.766;2.900;2024-02-28T07:35:55;101389.28;;;6.07;100.00
60852;BME280;48553;50.766;2.900;2024-02-28T07:39:00;101387.06;;;6.09;100.00
60852;BME280;48553;50.766;2.900;2024-02-28T07:42:01;101383.53;;;6.09;100.00
60852;BME280;48553;50.766;2.900;2024-02-28T07:45:01;101376.72;;;6.11;100.00
60852;BME280;48553;50.766;2.900;2024-02-28T07:48:02;101391.94;;;6.12;100.00
60852;BME280;48553;50.766;2.900;2024-02-28T07:51:08;101386.75;;;6.11;100.00
60852;BME280;48553;50.766;2.900;2024-02-28T07:54:09;101387.28;;;6.13;100.00
60852;BME280;48553;50.766;2.900;2024-02-28T07:57:10;101391.66;;;6.14;100.00
60852;BME280;48553;50.766;2.900;2024-02-28T08:00:12;101397.09;;;6.14;100.00
60852;BME280;48553;50.766;2.900;2024-02-28T08:03:13;101394.06;;;6.15;100.00
60852;BME280;48553;50.766;2.900;2024-02-28T08:06:14;101399.50;;;6.15;100.00
60852;BME280;48553;50.766;2.900;2024-02-28T08:09:16;101399.50;;;6.15;100.00
60852;BME280;48553;50.766;2.900;2024-02-28T08:12:16;101404.66;;;6.17;100.00
60852;BME280;48553;50.766;2.900;2024-02-28T08:15:17;101401.06;;;6.21;100.00
60852;BME280;48553;50.766;2.900;2024-02-28T08:18:17;101406.00;;;6.19;100.00
60852;BME280;48553;50.766;2.900;2024-02-28T08:21:18;101413.88;;;6.21;100.00
60852;BME280;48553;50.766;2.900;2024-02-28T08:24:18;101408.44;;;6.21;100.00
60852;BME280;48553;50.766;2.900;2024-02-28T08:27:19;101423.91;;;6.25;100.00
60852;BME280;48553;50.766;2.900;2024-02-28T08:30:20;101423.63;;;6.27;100.00
60852;BME280;48553;50.766;2.900;2024-02-28T08:33:21;101419.78;;;6.28;100.00
60852;BME280;48553;50.766;2.900;2024-02-28T08:36:21;101423.03;;;6.30;100.00
60852;BME280;48553;50.766;2.900;2024-02-28T08:39:22;101426.53;;;6.31;100.00
60852;BME280;48553;50.766;2.900;2024-02-28T08:42:26;101433.63;;;6.32;100.00
60852;BME280;48553;50.766;2.900;2024-02-28T08:45:27;101427.06;;;6.33;100.00
60852;BME280;48553;50.766;2.900;2024-02-28T08:48:27;101418.09;;;6.32;100.00
60852;BME280;48553;50.766;2.900;2024-02-28T08:51:28;101416.72;;;6.35;100.00
60852;BME280;48553;50.766;2.900;2024-02-28T08:54:28;101423.19;;;6.39;100.00
60852;BME280;48553;50.766;2.900;2024-02-28T08:57:30;101416.13;;;6.38;100.00
60852;BME280;48553;50.766;2.900;2024-02-28T09:00:30;101419.66;;;6.38;100.00
60852;BME280;48553;50.766;2.900;2024-02-28T09:03:31;101418.28;;;6.41;100.00
60852;BME280;48553;50.766;2.900;2024-02-28T09:06:31;101415.56;;;6.41;100.00
60852;BME280;48553;50.766;2.900;2024-02-28T09:09:31;101420.13;;;6.45;100.00
60852;BME280;48553;50.766;2.900;2024-02-28T09:12:38;101426.38;;;6.46;100.00
60852;BME280;48553;50.766;2.900;2024-02-28T09:15:38;101427.97;;;6.47;100.00
60852;BME280;48553;50.766;2.900;2024-02-28T09:18:38;101428.50;;;6.49;100.00
60852;BME280;48553;50.766;2.900;2024-02-28T09:21:39;101430.13;;;6.50;100.00
60852;BME280;48553;50.766;2.900;2024-02-28T09:24:39;101435.59;;;6.50;100.00
60852;BME280;48553;50.766;2.900;2024-02-28T09:27:40;101436.09;;;6.52;100.00
60852;BME280;48553;50.766;2.900;2024-02-28T09:30:40;101435.78;;;6.54;100.00
60852;BME280;48553;50.766;2.900;2024-02-28T09:33:41;101434.41;;;6.56;100.00
60852;BME280;48553;50.766;2.900;2024-02-28T09:36:42;101439.56;;;6.58;100.00
60852;BME280;48553;50.766;2.900;2024-02-28T09:39:43;101441.19;;;6.59;100.00
60852;BME280;48553;50.766;2.900;2024-02-28T09:42:50;101437.09;;;6.61;100.00
60852;BME280;48553;50.766;2.900;2024-02-28T09:45:54;101431.31;;;6.63;100.00
60852;BME280;48553;50.766;2.900;2024-02-28T09:49:01;101431.84;;;6.65;100.00
60852;BME280;48553;50.766;2.900;2024-02-28T09:52:03;101432.09;;;6.68;100.00
60852;BME280;48553;50.766;2.900;2024-02-28T09:55:04;101439.44;;;6.68;100.00
60852;BME280;48553;50.766;2.900;2024-02-28T09:58:05;101444.03;;;6.73;100.00
60852;BME280;48553;50.766;2.900;2024-02-28T10:01:07;101434.97;;;6.77;100.00
60852;BME280;48553;50.766;2.900;2024-02-28T10:04:10;101428.63;;;6.82;100.00
60852;BME280;48553;50.766;2.900;2024-02-28T10:07:13;101445.72;;;6.87;100.00
60852;BME280;48553;50.766;2.900;2024-02-28T10:10:14;101426.34;;;6.89;100.00
60852;BME280;48553;50.766;2.900;2024-02-28T10:13:16;101429.28;;;6.93;100.00
60852;BME280;48553;50.766;2.900;2024-02-28T10:16:17;101432.75;;;6.98;100.00
60852;BME280;48553;50.766;2.900;2024-02-28T10:19:17;101430.03;;;6.98;100.00
60852;BME280;48553;50.766;2.900;2024-02-28T10:22:18;101424.81;;;7.02;100.00
60852;BME280;48553;50.766;2.900;2024-02-28T10:25:19;101430.41;;;7.10;100.00
60852;BME280;48553;50.766;2.900;2024-02-28T10:28:19;101416.72;;;7.16;100.00
60852;BME280;48553;50.766;2.900;2024-02-28T10:31:21;101419.56;;;7.24;100.00
60852;BME280;48553;50.766;2.900;2024-02-28T10:34:22;101414.56;;;7.31;100.00
60852;BME280;48553;50.766;2.900;2024-02-28T10:37:23;101417.09;;;7.42;100.00
60852;BME280;48553;50.766;2.900;2024-02-28T10:40:23;101418.66;;;7.48;100.00
60852;BME280;48553;50.766;2.900;2024-02-28T10:43:25;101421.56;;;7.51;100.00
60852;BME280;48553;50.766;2.900;2024-02-28T10:46:28;101410.78;;;7.60;100.00
60852;BME280;48553;50.766;2.900;2024-02-28T10:49:29;101416.97;;;7.66;100.00
60852;BME280;48553;50.766;2.900;2024-02-28T10:52:33;101422.63;;;7.69;100.00
60852;BME280;48553;50.766;2.900;2024-02-28T10:55:34;101415.28;;;7.70;100.00
60852;BME280;48553;50.766;2.900;2024-02-28T10:58:59;101403.16;;;7.76;100.00
60852;BME280;48553;50.766;2.900;2024-02-28T11:02:03;101409.84;;;7.84;100.00
60852;BME280;48553;50.766;2.900;2024-02-28T11:05:04;101402.25;;;7.94;100.00
60852;BME280;48553;50.766;2.900;2024-02-28T11:08:08;101394.91;;;8.09;100.00
60852;BME280;48553;50.766;2.900;2024-02-28T11:11:09;101394.69;;;8.19;100.00
60852;BME280;48553;50.766;2.900;2024-02-28T11:14:14;101392.56;;;8.30;100.00
60852;BME280;48553;50.766;2.900;2024-02-28T11:17:26;101395.19;;;8.35;100.00
60852;BME280;48553;50.766;2.900;2024-02-28T11:20:34;101400.34;;;8.36;100.00
60852;BME280;48553;50.766;2.900;2024-02-28T11:23:37;101392.59;;;8.44;100.00
60852;BME280;48553;50.766;2.900;2024-02-28T11:26:37;101379.03;;;8.52;100.00
60852;BME280;48553;50.766;2.900;2024-02-28T11:29:38;101377.19;;;8.62;100.00
60852;BME280;48553;50.766;2.900;2024-02-28T11:32:38;101387.41;;;8.70;100.00
60852;BME280;48553;50.766;2.900;2024-02-28T11:35:39;101382.69;;;8.84;100.00
60852;BME280;48553;50.766;2.900;2024-02-28T11:38:40;101386.31;;;8.93;100.00
60852;BME280;48553;50.766;2.900;2024-02-28T11:41:40;101384.09;;;8.95;100.00
60852;BME280;48553;50.766;2.900;2024-02-28T11:44:41;101391.44;;;9.09;100.00
60852;BME280;48553;50.766;2.900;2024-02-28T11:47:42;101376.25;;;9.25;100.00
60852;BME280;48553;50.766;2.900;2024-02-28T11:50:43;101369.16;;;9.24;100.00
60852;BME280;48553;50.766;2.900;2024-02-28T11:53:43;101379.06;;;9.34;100.00
60852;BME280;48553;50.766;2.900;2024-02-28T11:56:44;101371.53;;;9.39;100.00
60852;BME280;48553;50.766;2.900;2024-02-28T11:59:44;101377.94;;;9.35;100.00
60852;BME280;48553;50.766;2.900;2024-02-28T12:02:45;101375.38;;;9.38;100.00
60852;BME280;48553;50.766;2.900;2024-02-28T12:05:46;101369.22;;;9.33;100.00
60852;BME280;48553;50.766;2.900;2024-02-28T12:08:46;101370.97;;;9.29;100.00
60852;BME280;48553;50.766;2.900;2024-02-28T12:11:47;101368.22;;;9.29;100.00
60852;BME280;48553;50.766;2.900;2024-02-28T12:14:47;101353.75;;;9.28;100.00
60852;BME280;48553;50.766;2.900;2024-02-28T12:17:48;101344.44;;;9.29;100.00
60852;BME280;48553;50.766;2.900;2024-02-28T12:20:48;101338.47;;;9.27;100.00
60852;BME280;48553;50.766;2.900;2024-02-28T12:23:50;101338.97;;;9.29;100.00
60852;BME280;48553;50.766;2.900;2024-02-28T12:26:50;101338.63;;;9.31;100.00
60852;BME280;48553;50.766;2.900;2024-02-28T12:29:51;101332.88;;;9.32;100.00
60852;BME280;48553;50.766;2.900;2024-02-28T12:32:51;101347.47;;;9.28;100.00
60852;BME280;48553;50.766;2.900;2024-02-28T12:35:52;101342.50;;;9.30;100.00
60852;BME280;48553;50.766;2.900;2024-02-28T12:38:52;101336.22;;;9.29;100.00
60852;BME280;48553;50.766;2.900;2024-02-28T12:41:52;101337.34;;;9.28;100.00
60852;BME280;48553;50.766;2.900;2024-02-28T12:44:53;101330.25;;;9.27;100.00
60852;BME280;48553;50.766;2.900;2024-02-28T12:47:53;101328.34;;;9.28;100.00
60852;BME280;48553;50.766;2.900;2024-02-28T12:50:57;101318.19;;;9.28;100.00
60852;BME280;48553;50.766;2.900;2024-02-28T12:53:58;101319.19;;;9.32;100.00
60852;BME280;48553;50.766;2.900;2024-02-28T12:56:58;101313.91;;;9.36;100.00
60852;BME280;48553;50.766;2.900;2024-02-28T12:59:59;101313.41;;;9.34;100.00
60852;BME280;48553;50.766;2.900;2024-02-28T13:03:00;101309.53;;;9.35;100.00
60852;BME280;48553;50.766;2.900;2024-02-28T13:06:00;101317.44;;;9.36;100.00
60852;BME280;48553;50.766;2.900;2024-02-28T13:09:01;101320.84;;;9.42;100.00
60852;BME280;48553;50.766;2.900;2024-02-28T13:12:01;101318.09;;;9.42;100.00
60852;BME280;48553;50.766;2.900;2024-02-28T13:15:02;101317.00;;;9.43;100.00
60852;BME280;48553;50.766;2.900;2024-02-28T13:18:03;101313.75;;;9.41;100.00
60852;BME280;48553;50.766;2.900;2024-02-28T13:21:09;101306.06;;;9.43;100.00
60852;BME280;48553;50.766;2.900;2024-02-28T13:24:10;101305.41;;;9.46;100.00
60852;BME280;48553;50.766;2.900;2024-02-28T13:27:10;101301.06;;;9.45;100.00
60852;BME280;48553;50.766;2.900;2024-02-28T13:30:11;101303.47;;;9.47;100.00
60852;BME280;48553;50.766;2.900;2024-02-28T13:33:11;101305.13;;;9.48;100.00
60852;BME280;48553;50.766;2.900;2024-02-28T13:36:12;101298.84;;;9.47;100.00
60852;BME280;48553;50.766;2.900;2024-02-28T13:39:12;101300.44;;;9.48;100.00
60852;BME280;48553;50.766;2.900;2024-02-28T13:42:13;101275.31;;;9.46;100.00
60852;BME280;48553;50.766;2.900;2024-02-28T13:45:14;101270.50;;;9.43;100.00
60852;BME280;48553;50.766;2.900;2024-02-28T13:48:19;101266.97;;;9.43;100.00
60852;BME280;48553;50.766;2.900;2024-02-28T13:51:21;101266.13;;;9.42;100.00
60852;BME280;48553;50.766;2.900;2024-02-28T13:54:21;101261.00;;;9.40;100.00
60852;BME280;48553;50.766;2.900;2024-02-28T13:57:22;101261.28;;;9.39;100.00
60852;BME280;48553;50.766;2.900;2024-02-28T14:00:22;101257.13;;;9.41;100.00
60852;BME280;48553;50.766;2.900;2024-02-28T14:03:24;101255.81;;;9.39;100.00
60852;BME280;48553;50.766;2.900;2024-02-28T14:06:25;101260.66;;;9.42;100.00
60852;BME280;48553;50.766;2.900;2024-02-28T14:09:26;101260.50;;;9.38;100.00
60852;BME280;48553;50.766;2.900;2024-02-28T14:12:26;101255.03;;;9.38;100.00
60852;BME280;48553;50.766;2.900;2024-02-28T14:15:27;101258.38;;;9.35;100.00
60852;BME280;48553;50.766;2.900;2024-02-28T14:18:27;101259.81;;;9.33;100.00
60852;BME280;48553;50.766;2.900;2024-02-28T14:21:27;101255.97;;;9.34;100.00
60852;BME280;48553;50.766;2.900;2024-02-28T14:24:28;101254.47;;;9.28;100.00
60852;BME280;48553;50.766;2.900;2024-02-28T14:27:28;101248.03;;;9.24;100.00
60852;BME280;48553;50.766;2.900;2024-02-28T14:30:33;101254.13;;;9.20;100.00
60852;BME280;48553;50.766;2.900;2024-02-28T14:33:34;101243.81;;;9.17;100.00
60852;BME280;48553;50.766;2.900;2024-02-28T14:36:36;101253.13;;;9.16;100.00
60852;BME280;48553;50.766;2.900;2024-02-28T14:39:37;101242.84;;;9.13;100.00
60852;BME280;48553;50.766;2.900;2024-02-28T14:42:38;101236.06;;;9.11;100.00
60852;BME280;48553;50.766;2.900;2024-02-28T14:45:39;101223.19;;;9.11;100.00
60852;BME280;48553;50.766;2.900;2024-02-28T14:48:39;101227.03;;;9.10;100.00
60852;BME280;48553;50.766;2.900;2024-02-28T14:51:40;101229.28;;;9.08;100.00
60852;BME280;48553;50.766;2.900;2024-02-28T14:54:41;101215.59;;;9.08;100.00
60852;BME280;48553;50.766;2.900;2024-02-28T14:57:44;101225.75;;;9.08;100.00
60852;BME280;48553;50.766;2.900;2024-02-28T15:00:44;101223.34;;;9.06;100.00
60852;BME280;48553;50.766;2.900;2024-02-28T15:03:47;101228.81;;;9.06;100.00
60852;BME280;48553;50.766;2.900;2024-02-28T15:06:48;101227.97;;;9.06;100.00
60852;BME280;48553;50.766;2.900;2024-02-28T15:09:49;101218.34;;;9.08;100.00
60852;BME280;48553;50.766;2.900;2024-02-28T15:12:50;101216.75;;;9.07;100.00
60852;BME280;48553;50.766;2.900;2024-02-28T15:15:50;101217.88;;;9.06;100.00
60852;BME280;48553;50.766;2.900;2024-02-28T15:18:51;101224.44;;;9.05;100.00
60852;BME280;48553;50.766;2.900;2024-02-28T15:21:52;101212.22;;;9.03;100.00
60852;BME280;48553;50.766;2.900;2024-02-28T15:24:52;101213.66;;;9.00;100.00
60852;BME280;48553;50.766;2.900;2024-02-28T15:27:53;101217.50;;;8.99;100.00
60852;BME280;48553;50.766;2.900;2024-02-28T15:30:53;101224.38;;;8.96;100.00
60852;BME280;48553;50.766;2.900;2024-02-28T15:33:55;101216.53;;;8.95;100.00
60852;BME280;48553;50.766;2.900;2024-02-28T15:36:56;101216.03;;;8.93;100.00
60852;BME280;48553;50.766;2.900;2024-02-28T15:39:57;101212.78;;;8.91;100.00
60852;BME280;48553;50.766;2.900;2024-02-28T15:42:57;101216.34;;;8.91;100.00
60852;BME280;48553;50.766;2.900;2024-02-28T15:45:58;101208.44;;;8.90;100.00